createdAt,value
2022-10-11T00:05:01.430Z,1008.52
2022-10-11T00:10:45.688Z,1008.54
2022-10-11T00:16:43.177Z,1008.6
2022-10-11T00:22:27.351Z,1008.57
2022-10-11T00:28:16.513Z,1008.62
2022-10-11T00:34:10.780Z,1008.56
2022-10-11T00:40:02.953Z,1008.6
2022-10-11T00:46:13.272Z,1008.63
2022-10-11T00:51:58.756Z,1008.68
2022-10-11T00:57:52.984Z,1008.75
2022-10-11T01:03:40.238Z,1008.76
2022-10-11T01:09:31.959Z,1008.72
2022-10-11T01:15:23.061Z,1008.81
2022-10-11T01:21:18.320Z,1008.86
2022-10-11T01:27:16.145Z,1008.92
2022-10-11T01:33:14.323Z,1008.95
2022-10-11T01:39:00.332Z,1008.92
2022-10-11T01:44:45.670Z,1008.9
2022-10-11T01:50:37.507Z,1008.91
2022-10-11T01:56:28.818Z,1008.94
2022-10-11T02:02:18.859Z,1008.91
2022-10-11T02:08:06.204Z,1008.92
2022-10-11T02:13:54.558Z,1008.97
2022-10-11T02:19:41.298Z,1008.97
2022-10-11T02:25:27.335Z,1008.96
2022-10-11T02:31:12.434Z,1008.92
2022-10-11T02:36:59.533Z,1008.93
2022-10-11T02:42:45.779Z,1008.89
2022-10-11T02:48:29.568Z,1008.93
2022-10-11T02:54:13.039Z,1008.9
2022-10-11T02:59:56.328Z,1008.88
2022-10-11T03:05:39.531Z,1008.92
2022-10-11T03:11:22.982Z,1008.99
2022-10-11T03:17:31.360Z,1008.95
2022-10-11T03:23:09.707Z,1009.07
2022-10-11T03:28:53.101Z,1009.1
2022-10-11T03:34:36.351Z,1009.17
2022-10-11T03:40:20.600Z,1009.21
2022-10-11T03:46:04.680Z,1009.22
2022-10-11T03:51:49.128Z,1009.28
2022-10-11T03:57:32.462Z,1009.31
2022-10-11T04:03:15.882Z,1009.29
2022-10-11T04:08:58.938Z,1009.33
2022-10-11T04:14:42.270Z,1009.35
2022-10-11T04:20:25.515Z,1009.28
2022-10-11T04:26:09.667Z,1009.29
2022-10-11T04:31:53.029Z,1009.34
2022-10-11T04:37:36.298Z,1009.37
2022-10-11T04:43:19.554Z,1009.36
2022-10-11T04:49:02.827Z,1009.47
2022-10-11T04:54:46.317Z,1009.5
2022-10-11T05:00:29.612Z,1009.49
2022-10-11T05:06:14.032Z,1009.52
2022-10-11T05:11:57.490Z,1009.52
2022-10-11T05:17:40.688Z,1009.55
2022-10-11T05:23:25.594Z,1009.63
2022-10-11T05:29:08.996Z,1009.57
2022-10-11T05:34:52.152Z,1009.62
2022-10-11T05:40:35.472Z,1009.68
2022-10-11T05:46:18.646Z,1009.69
2022-10-11T05:52:02.819Z,1009.74
2022-10-11T05:57:46.134Z,1009.76
2022-10-11T06:03:29.561Z,1009.82
2022-10-11T06:09:13.211Z,1009.85
2022-10-11T06:14:56.597Z,1009.87
2022-10-11T06:20:39.967Z,1009.97
2022-10-11T06:26:23.252Z,1010
2022-10-11T06:32:06.583Z,1010.05
2022-10-11T06:37:49.901Z,1010.11
2022-10-11T06:43:33.090Z,1010.12
2022-10-11T06:49:23.405Z,1010.18
2022-10-11T06:55:07.330Z,1010.31
2022-10-11T07:00:50.610Z,1010.32
2022-10-11T07:06:36.934Z,1010.4
2022-10-11T07:12:20.186Z,1010.42
2022-10-11T07:18:03.528Z,1010.45
2022-10-11T07:23:47.947Z,1010.56
2022-10-11T07:29:31.338Z,1010.61
2022-10-11T07:35:14.550Z,1010.63
2022-10-11T07:40:57.779Z,1010.71
2022-10-11T07:46:41.248Z,1010.74
2022-10-11T07:52:24.676Z,1010.8
2022-10-11T07:58:07.977Z,1010.87
2022-10-11T08:03:51.514Z,1010.9
2022-10-11T08:09:35.407Z,1010.86
2022-10-11T08:15:18.682Z,1010.87
2022-10-11T08:21:05.823Z,1010.92
2022-10-11T08:26:49.091Z,1010.95
2022-10-11T08:32:33.845Z,1010.99
2022-10-11T08:38:17.671Z,1011.02
2022-10-11T08:44:04.951Z,1011.04
2022-10-11T08:49:48.184Z,1011.06
2022-10-11T08:55:35.031Z,1010.98
2022-10-11T09:01:20.001Z,1010.98
2022-10-11T09:07:08.779Z,1011
2022-10-11T09:12:57.274Z,1011.09
2022-10-11T09:18:47.194Z,1011.06
2022-10-11T09:24:43.037Z,1011.03
2022-10-11T09:30:26.445Z,1011
2022-10-11T09:36:15.016Z,1010.97
2022-10-11T09:42:00.758Z,1010.97
2022-10-11T09:47:43.872Z,1010.97
2022-10-11T09:53:39.498Z,1010.92
2022-10-11T09:59:30.365Z,1010.94
2022-10-11T10:05:21.327Z,1010.96
2022-10-11T10:11:06.375Z,1010.93
2022-10-11T10:16:54.708Z,1010.88
2022-10-11T10:22:38.163Z,1010.91
2022-10-11T10:28:23.312Z,1010.85
2022-10-11T10:34:11.516Z,1010.83
2022-10-11T10:39:57.554Z,1010.83
2022-10-11T10:45:44.896Z,1010.85
2022-10-11T10:51:31.173Z,1010.8
2022-10-11T10:57:18.541Z,1010.76
2022-10-11T11:03:02.881Z,1010.76
2022-10-11T11:08:54.264Z,1010.76
2022-10-11T11:14:46.171Z,1010.68
2022-10-11T11:20:41.233Z,1010.62
2022-10-11T11:26:28.646Z,1010.62
2022-10-11T11:32:23.691Z,1010.63
2022-10-11T11:38:11.860Z,1010.55
2022-10-11T11:44:01.762Z,1010.57
2022-10-11T11:49:47.024Z,1010.46
2022-10-11T11:55:33.026Z,1010.41
2022-10-11T12:01:22.558Z,1010.34
2022-10-11T12:07:18.197Z,1010.21
2022-10-11T12:13:09.844Z,1010.18
2022-10-11T12:18:59.129Z,1010.16
2022-10-11T12:24:56.604Z,1010.04
2022-10-11T12:31:01.056Z,1009.99
2022-10-11T12:36:45.318Z,1010.01
2022-10-11T12:42:30.276Z,1009.98
2022-10-11T12:48:34.945Z,1009.91
2022-10-11T12:54:40.708Z,1009.9
2022-10-11T13:00:33.807Z,1009.88
2022-10-11T13:06:18.681Z,1009.82
2022-10-11T13:12:04.859Z,1009.77
2022-10-11T13:17:48.431Z,1009.78
2022-10-11T13:23:36.478Z,1009.78
2022-10-11T13:29:23.814Z,1009.76
2022-10-11T13:35:12.631Z,1009.69
2022-10-11T13:40:56.079Z,1009.66
2022-10-11T13:46:42.635Z,1009.67
2022-10-11T13:52:26.001Z,1009.72
2022-10-11T13:58:19.821Z,1009.66
2022-10-11T14:04:05.010Z,1009.62
2022-10-11T14:09:48.328Z,1009.59
2022-10-11T14:15:33.058Z,1009.6
2022-10-11T14:21:29.689Z,1009.57
2022-10-11T14:27:15.674Z,1009.51
2022-10-11T14:33:01.733Z,1009.46
2022-10-11T14:38:45.074Z,1009.37
2022-10-11T14:44:29.437Z,1009.37
2022-10-11T14:50:28.344Z,1009.4
2022-10-11T14:56:11.937Z,1009.33
2022-10-11T15:02:02.180Z,1009.25
2022-10-11T15:07:45.838Z,1009.13
2022-10-11T15:13:29.034Z,1009.16
2022-10-11T15:19:14.510Z,1009.11
2022-10-11T15:24:58.027Z,1009.1
2022-10-11T15:30:42.710Z,1009.06
2022-10-11T15:36:25.924Z,1008.98
2022-10-11T15:42:09.418Z,1008.91
2022-10-11T15:47:53.262Z,1008.9
2022-10-11T15:53:37.387Z,1008.99
2022-10-11T15:59:21.471Z,1008.96
2022-10-11T16:05:06.061Z,1008.98
2022-10-11T16:10:49.701Z,1008.96
2022-10-11T16:16:32.869Z,1008.91
2022-10-11T16:22:17.116Z,1008.88
2022-10-11T16:28:00.362Z,1008.92
2022-10-11T16:33:43.593Z,1008.93
2022-10-11T16:39:27.211Z,1008.99
2022-10-11T16:45:11.841Z,1009.01
2022-10-11T16:51:02.463Z,1008.99
2022-10-11T16:56:45.810Z,1009
2022-10-11T17:02:33.359Z,1009.05
2022-10-11T17:08:16.644Z,1009.03
2022-10-11T17:14:00.545Z,1009
2022-10-11T17:19:46.574Z,1009.04
2022-10-11T17:25:30.081Z,1009.15
2022-10-11T17:31:13.441Z,1009.07
2022-10-11T17:36:56.790Z,1009.06
2022-10-11T17:42:40.477Z,1009.15
2022-10-11T17:48:24.100Z,1009.15
2022-10-11T17:54:07.676Z,1009.16
2022-10-11T17:59:51.056Z,1009.21
2022-10-11T18:05:38.889Z,1009.22
2022-10-11T18:11:22.408Z,1009.14
2022-10-11T18:17:05.510Z,1009.11
2022-10-11T18:22:49.758Z,1009.12
2022-10-11T18:28:33.233Z,1009.08
2022-10-11T18:34:17.195Z,1009.01
2022-10-11T18:40:00.683Z,1008.97
2022-10-11T18:45:43.985Z,1008.93
2022-10-11T18:51:28.031Z,1008.91
2022-10-11T18:57:11.345Z,1008.8
2022-10-11T19:02:54.527Z,1008.85
2022-10-11T19:08:37.666Z,1008.88
2022-10-11T19:14:21.967Z,1008.85
2022-10-11T19:20:05.915Z,1008.81
2022-10-11T19:25:49.418Z,1008.8
2022-10-11T19:31:33.490Z,1008.84
2022-10-11T19:37:17.090Z,1008.84
2022-10-11T19:43:00.289Z,1008.91
2022-10-11T19:48:43.906Z,1008.94
2022-10-11T19:54:27.803Z,1008.94
2022-10-11T20:00:12.118Z,1008.91
2022-10-11T20:05:56.187Z,1008.97
2022-10-11T20:11:40.343Z,1008.97
2022-10-11T20:17:24.818Z,1008.95
2022-10-11T20:23:08.149Z,1008.91
2022-10-11T20:28:57.054Z,1008.93
2022-10-11T20:34:40.698Z,1008.99
2022-10-11T20:40:24.039Z,1008.88
2022-10-11T20:46:08.404Z,1008.98
2022-10-11T20:51:51.818Z,1009.05
2022-10-11T20:57:36.644Z,1009.03
2022-10-11T21:03:22.359Z,1008.98
2022-10-11T21:09:07.902Z,1008.97
2022-10-11T21:14:58.528Z,1008.96
2022-10-11T21:20:42.623Z,1008.86
2022-10-11T21:26:25.919Z,1008.91
2022-10-11T21:32:14.579Z,1008.88
2022-10-11T21:37:59.099Z,1008.89
2022-10-11T21:43:42.492Z,1008.87
2022-10-11T21:49:25.992Z,1008.8
2022-10-11T21:55:09.467Z,1008.69
2022-10-11T22:00:53.006Z,1008.64
2022-10-11T22:06:36.347Z,1008.63
2022-10-11T22:12:19.567Z,1008.57
2022-10-11T22:18:03.370Z,1008.53
2022-10-11T22:23:47.585Z,1008.51
2022-10-11T22:29:35.110Z,1008.48
2022-10-11T22:35:18.409Z,1008.53
2022-10-11T22:41:02.167Z,1008.55
2022-10-11T22:46:45.428Z,1008.47
2022-10-11T22:52:28.886Z,1008.41
2022-10-11T22:58:12.110Z,1008.42
2022-10-11T23:03:55.334Z,1008.4
2022-10-11T23:09:38.839Z,1008.41
2022-10-11T23:15:22.473Z,1008.32
2022-10-11T23:21:06.666Z,1008.32
2022-10-11T23:26:49.695Z,1008.22
2022-10-11T23:32:32.963Z,1008.22
2022-10-11T23:38:16.521Z,1008.21
2022-10-11T23:43:59.929Z,1008.29
2022-10-11T23:49:43.097Z,1008.22
2022-10-11T23:55:26.290Z,1008.26
